« 定点 富山空港 2018/12/12 wed | トップページ | 美ら島エアーフェスタ2018【1日目BI編】 那覇空港 2018/12/8 sat »

2018/12/15

美ら島エアーフェスタ2018【1日目飛行編】 那覇空港 2018/12/8 sat

毎年恒例の美ら島エアーフェスタ。初日は、会場入りは後にして、早朝から瀬長島に出張て、高台から遠望です。

ROAH 072200Z 04016KT 9999 FEW015 BKN040 20/15 Q1021 RMK 2CU015 7SC040 A3016

20181208_roah_100f15

到着時には、すでにアラート機のランナップが始まってました。強風とまだ薄暗いので、カメラもブレブレ。ですが、なんとここにパンダ4匹。

20181208_roah_101senaga

那覇空港拡張工事が行われているので、来る度に変わっています。

20181208_roah_102bi

山の上に到着は、7時半。会場は準備開始。

ROAH 072200Z 04016KT 9999 FEW015 BKN040 20/15 Q1021 RMK 2CU015 7SC040 A3016

20181208_roah_103c681203

尾白さんは、飛行隊舎前に。その場所は、旧の隊舎跡ですね。

ROAH 072300Z 04015KT 9999 FEW016 BKN045 19/15 Q1022 RMK 2CU016 7SC045 A3018

20181208_roah_104m5040

5040 P-3C VP-5 T40

ROAH 072300Z 04015KT 9999 FEW016 BKN045 19/15 Q1022 RMK 2CU016 7SC045 A3018

20181208_roah_105ja09rk

JA09RK 地上展示のウルトラマンがドナドナされて行きました。

ROAH 080000Z 04013KT 9999 SCT018 BKN050 20/14 Q1022

20181208_roah_106c681203

9時を廻って、ブルーホエールさんが始動。

20181208_roah_107c681203

68-1203 KC-2 403SQ C03

20181208_roah_108c681203

招待や体験搭乗ですかね。

20181208_roah_109c681203

慶良間諸島を廻って30分ほどで戻ってきました。

20181208_roah_110c681203

やっぱり、でかい

20181208_roah_111c681203

風が強いので、海も荒れています。

ROAH 080130Z 05012KT 020V080 9999 SCT020 BKN050 21/14 Q1023 RMK 3CU020 7SC050 A3021

20181208_roah_112c681203

C-2さん2便目は、キティエバーさんを追って 10:32

20181208_roah_113c681203

普通に順番を待って

20181208_roah_114c681203

#203

ROAH 080200Z 05010KT 010V100 9999 FEW020 BKN045 21/15 Q1023 RMK 2CU020 7SC045 A3021

20181208_roah_115m5044

5044 P-3C VP-5 T44

20181208_roah_116ja974a

JA974A AW139 JCG

20181208_roah_117c681203

静かな鯨さんです。 11:08

ROAH 080300Z 04013KT 360V080 9999 VCSH SCT020 BKN045 21/15 Q1022 RMK 3CU020 7SC045 A3020

20181208_roah_118n

GTI8193 PHNL-RODN N464MC B747-446

20181208_roah_119f15

デモスクランブル展示なのですが・・・ 動いたのは確認しましたが、ただぐるっと廻って終りみたい。

20181208_roah_120c681203

C-2 3便目 12:11

20181208_roah_121c681203

インターセクション・デパーチャー

20181208_roah_122c681203

離陸は、ハヤッ

20181208_roah_123m5073

5073 P-3C VP-5 T73

ROAH 080330Z 04014KT 9999 FEW020 BKN045 21/15 Q1022 RMK 1CU020 6SC045 A3019

20181208_roah_124c681203

12:38 3便目の着陸時に編隊飛行のE-2さんが出発

20181208_roah_125e343451

一緒に飛ぶ15もタクシー

20181208_roah_126e343451

34-3451 E-2C 603SQ asuka01

20181208_roah_127c681203

新しいズングリ同士

20181208_roah_128m5036

5036 P-3C VP-5 T36 編隊飛行の機体

20181208_roah_129f928909

20181208_roah_130f928909

機体は白頭ですが、天狗の模様

20181208_roah_131f928909

92-8909 F-15J 304SQ jaide17

20181208_roah_132f228935

22-8935 F-15J 304SQ jaide18

20181208_roah_133f928909

編隊離陸

20181208_roah_134f928909

ROAH 080400Z 03012KT 330V090 9999 FEW020 BKN045 21/14 Q1022 RMK 1CU020 7SC045 A3018

20181208_roah_135e343451

E-2Cを真ん中に15がガード

20181208_roah_136e343451

13:09

20181208_roah_137jg51971

JG51971 CH-47JA WH C971 体験搭乗

20181208_roah_138jg51971

いつかは、乗ってみたいのを

20181208_roah_139m5036

次のパスはP-3Cをガード

20181208_roah_140m5036

13:25

20181208_roah_141m5036

ROAH 080430Z 04012KT 360V070 9999 FEW020 BKN040 21/14 Q1022 RMK 1CU020 7SC040 A3018

20181208_roah_142e343451

34-3451 E-2C 603SQ asuka01 PARで着陸

20181208_roah_143c681203

C-2さん4便目 13:45

20181208_roah_144f928909

92-8909 F-15J 304SQ jaide17

20181208_roah_145f228935

22-8935 F-15J 304SQ jaide18

20181208_roah_146f228935

この日はお客さんが来ない平穏な日だった。

20181208_roah_147m5036

5036 P-3C VP-5 T36

20181208_roah_148f828905

続いて機動飛行展示の15がタクシー

ROAH 080500Z 03013KT 330V080 9999 FEW018 BKN045 20/14 Q1021 RMK 1CU018 7SC045 A3017

20181208_roah_149f828905

この編隊も白頭ですが、天狗のよう

20181208_roah_150f828905

82-8905 F-15J jaide19

20181208_roah_151f128927

28-8927 F-15J jaide20

20181208_roah_152f828905

リヒート

20181208_roah_153f828905

早々とリフトオフして・・

20181208_roah_154f828905

ドッカーン

20181208_roah_155f128927

僚機はノーマルで上がって・・

20181208_roah_156f128927

レフトターン

20181208_roah_157f128927

360°旋廻 14:06

20181208_roah_158f15

イニシャルから瀬長島上空を通過

20181208_roah_159f128927

ブレイクへ

20181208_roah_160f828905

20181208_roah_161f828905

いい捻りで

20181208_roah_162f828905

眼の前通過

20181208_roah_163f828905

#905 背中美人

20181208_roah_164f128927

#927

20181208_roah_165f128927

T/G

20181208_roah_166jg51971

JG51971 飛行の合間を縫って離着陸

20181208_roah_167f828905

20181208_roah_168f828905

20181208_roah_169f828905

20181208_roah_170f828905

20181208_roah_171f828905

#905 14:27

20181208_roah_172f128927

#927

20181208_roah_173f128927

トラフィックが高く、すぐ待機が増えます

ROAH 080530Z 04014KT 9999 FEW020 BKN040 21/14 Q1021 RMK 1CU020 7SC040 A3016

20181208_roah_174c681203

#203 14:41

20181208_roah_175c681203

この回は長くて、1時間ぐらい

20181208_roah_176c681203

体験搭乗はこれで終りのようです。

ROAH 080600Z 04011KT 9999 FEW020 BKN045 21/15 Q1021 RMK 1CU020 7SC045 A3017

20181208_roah_177m5040

5040 P-3C VP-5 T40

20181208_roah_178m5040

パトロール帰りで・・

20181208_roah_179m5040

シャワー

この後にブルーインパルス

その2へ続く

|

« 定点 富山空港 2018/12/12 wed | トップページ | 美ら島エアーフェスタ2018【1日目BI編】 那覇空港 2018/12/8 sat »

BI」カテゴリの記事

那覇空港」カテゴリの記事

コメント

コメントを書く



(ウェブ上には掲載しません)


コメントは記事投稿者が公開するまで表示されません。



トラックバック


この記事へのトラックバック一覧です: 美ら島エアーフェスタ2018【1日目飛行編】 那覇空港 2018/12/8 sat:

« 定点 富山空港 2018/12/12 wed | トップページ | 美ら島エアーフェスタ2018【1日目BI編】 那覇空港 2018/12/8 sat »